sensor_id;sensor_type;location;lat;lon;timestamp;P1;durP1;ratioP1;P2;durP2;ratioP2
76447;SDS011;65284;51.040;13.722;2023-07-29T00:01:17;4.68;;;1.80;;
76447;SDS011;65284;51.040;13.722;2023-07-29T00:03:43;4.07;;;2.08;;
76447;SDS011;65284;51.040;13.722;2023-07-29T00:06:11;4.15;;;1.95;;
76447;SDS011;65284;51.040;13.722;2023-07-29T00:08:41;6.32;;;1.92;;
76447;SDS011;65284;51.040;13.722;2023-07-29T00:11:13;4.60;;;1.70;;
76447;SDS011;65284;51.040;13.722;2023-07-29T00:13:40;3.53;;;1.60;;
76447;SDS011;65284;51.040;13.722;2023-07-29T00:16:06;6.35;;;1.80;;
76447;SDS011;65284;51.040;13.722;2023-07-29T00:18:40;3.65;;;1.40;;
76447;SDS011;65284;51.040;13.722;2023-07-29T00:21:07;3.50;;;1.60;;
76447;SDS011;65284;51.040;13.722;2023-07-29T00:23:33;4.07;;;1.60;;
76447;SDS011;65284;51.040;13.722;2023-07-29T00:26:00;4.30;;;2.33;;
76447;SDS011;65284;51.040;13.722;2023-07-29T00:28:26;3.75;;;2.20;;
76447;SDS011;65284;51.040;13.722;2023-07-29T00:30:53;3.25;;;1.60;;
76447;SDS011;65284;51.040;13.722;2023-07-29T00:33:19;3.95;;;1.50;;
76447;SDS011;65284;51.040;13.722;2023-07-29T00:35:46;3.85;;;1.60;;
76447;SDS011;65284;51.040;13.722;2023-07-29T00:38:13;4.18;;;1.63;;
76447;SDS011;65284;51.040;13.722;2023-07-29T00:40:39;3.60;;;2.08;;
76447;SDS011;65284;51.040;13.722;2023-07-29T00:43:06;2.83;;;1.88;;
76447;SDS011;65284;51.040;13.722;2023-07-29T00:45:40;3.35;;;1.70;;
76447;SDS011;65284;51.040;13.722;2023-07-29T00:48:09;5.50;;;1.70;;
76447;SDS011;65284;51.040;13.722;2023-07-29T00:50:36;3.53;;;1.90;;
76447;SDS011;65284;51.040;13.722;2023-07-29T00:53:03;3.47;;;1.63;;
76447;SDS011;65284;51.040;13.722;2023-07-29T00:55:29;2.65;;;1.70;;
76447;SDS011;65284;51.040;13.722;2023-07-29T00:58:03;2.88;;;1.73;;
76447;SDS011;65284;51.040;13.722;2023-07-29T01:00:30;3.58;;;1.98;;
76447;SDS011;65284;51.040;13.722;2023-07-29T01:02:56;6.35;;;2.20;;
76447;SDS011;65284;51.040;13.722;2023-07-29T01:05:23;3.42;;;1.63;;
76447;SDS011;65284;51.040;13.722;2023-07-29T01:14:21;3.33;;;1.60;;
76447;SDS011;65284;51.040;13.722;2023-07-29T01:16:57;3.58;;;1.80;;
76447;SDS011;65284;51.040;13.722;2023-07-29T01:22:14;2.92;;;1.88;;
76447;SDS011;65284;51.040;13.722;2023-07-29T01:24:42;3.90;;;1.52;;
76447;SDS011;65284;51.040;13.722;2023-07-29T01:27:09;4.65;;;2.10;;
76447;SDS011;65284;51.040;13.722;2023-07-29T01:29:41;4.63;;;1.90;;
76447;SDS011;65284;51.040;13.722;2023-07-29T01:32:10;3.75;;;1.48;;
76447;SDS011;65284;51.040;13.722;2023-07-29T01:34:41;4.72;;;1.70;;
76447;SDS011;65284;51.040;13.722;2023-07-29T01:37:15;5.70;;;1.70;;
76447;SDS011;65284;51.040;13.722;2023-07-29T01:39:49;3.53;;;1.80;;
76447;SDS011;65284;51.040;13.722;2023-07-29T01:42:17;2.25;;;1.63;;
76447;SDS011;65284;51.040;13.722;2023-07-29T01:47:13;4.03;;;1.77;;
76447;SDS011;65284;51.040;13.722;2023-07-29T01:49:40;4.63;;;1.83;;
76447;SDS011;65284;51.040;13.722;2023-07-29T01:52:06;7.68;;;2.00;;
76447;SDS011;65284;51.040;13.722;2023-07-29T01:54:33;4.50;;;1.98;;
76447;SDS011;65284;51.040;13.722;2023-07-29T01:56:59;2.28;;;1.60;;
76447;SDS011;65284;51.040;13.722;2023-07-29T01:59:26;4.35;;;1.80;;
76447;SDS011;65284;51.040;13.722;2023-07-29T02:01:52;5.95;;;1.80;;
76447;SDS011;65284;51.040;13.722;2023-07-29T02:04:19;3.85;;;1.92;;
76447;SDS011;65284;51.040;13.722;2023-07-29T02:06:45;4.55;;;1.90;;
76447;SDS011;65284;51.040;13.722;2023-07-29T02:09:11;6.45;;;2.00;;
76447;SDS011;65284;51.040;13.722;2023-07-29T02:11:40;4.43;;;1.67;;
76447;SDS011;65284;51.040;13.722;2023-07-29T02:14:13;3.97;;;1.80;;
76447;SDS011;65284;51.040;13.722;2023-07-29T02:16:39;5.28;;;1.73;;
76447;SDS011;65284;51.040;13.722;2023-07-29T02:19:06;2.92;;;1.60;;
76447;SDS011;65284;51.040;13.722;2023-07-29T02:21:33;3.83;;;1.65;;
76447;SDS011;65284;51.040;13.722;2023-07-29T02:23:59;3.35;;;1.50;;
76447;SDS011;65284;51.040;13.722;2023-07-29T02:26:25;4.13;;;1.83;;
76447;SDS011;65284;51.040;13.722;2023-07-29T02:28:52;2.45;;;1.50;;
76447;SDS011;65284;51.040;13.722;2023-07-29T02:31:22;3.28;;;1.38;;
76447;SDS011;65284;51.040;13.722;2023-07-29T02:33:51;2.78;;;1.73;;
76447;SDS011;65284;51.040;13.722;2023-07-29T02:36:18;2.05;;;1.23;;
76447;SDS011;65284;51.040;13.722;2023-07-29T02:38:44;4.10;;;1.60;;
76447;SDS011;65284;51.040;13.722;2023-07-29T02:41:11;3.55;;;1.70;;
76447;SDS011;65284;51.040;13.722;2023-07-29T02:43:42;2.90;;;1.60;;
76447;SDS011;65284;51.040;13.722;2023-07-29T02:46:09;3.05;;;1.60;;
76447;SDS011;65284;51.040;13.722;2023-07-29T02:48:36;5.20;;;1.48;;
76447;SDS011;65284;51.040;13.722;2023-07-29T02:51:02;4.35;;;1.83;;
76447;SDS011;65284;51.040;13.722;2023-07-29T02:53:29;2.65;;;1.50;;
76447;SDS011;65284;51.040;13.722;2023-07-29T02:55:55;3.80;;;1.58;;
76447;SDS011;65284;51.040;13.722;2023-07-29T02:58:22;3.40;;;1.45;;
76447;SDS011;65284;51.040;13.722;2023-07-29T03:00:48;3.40;;;1.50;;
76447;SDS011;65284;51.040;13.722;2023-07-29T03:03:15;2.78;;;1.30;;
76447;SDS011;65284;51.040;13.722;2023-07-29T03:05:41;2.10;;;1.30;;
76447;SDS011;65284;51.040;13.722;2023-07-29T03:08:08;5.25;;;1.30;;
76447;SDS011;65284;51.040;13.722;2023-07-29T03:10:35;2.65;;;1.10;;
76447;SDS011;65284;51.040;13.722;2023-07-29T03:13:02;2.28;;;1.10;;
76447;SDS011;65284;51.040;13.722;2023-07-29T03:15:29;2.40;;;1.55;;
76447;SDS011;65284;51.040;13.722;2023-07-29T03:17:55;3.13;;;1.10;;
76447;SDS011;65284;51.040;13.722;2023-07-29T03:20:21;2.38;;;1.10;;
76447;SDS011;65284;51.040;13.722;2023-07-29T03:22:48;4.25;;;1.20;;
76447;SDS011;65284;51.040;13.722;2023-07-29T03:25:14;2.60;;;1.00;;
76447;SDS011;65284;51.040;13.722;2023-07-29T03:27:41;1.88;;;1.10;;
76447;SDS011;65284;51.040;13.722;2023-07-29T03:30:08;1.83;;;0.90;;
76447;SDS011;65284;51.040;13.722;2023-07-29T03:32:35;2.42;;;0.93;;
76447;SDS011;65284;51.040;13.722;2023-07-29T03:35:04;1.92;;;1.00;;
76447;SDS011;65284;51.040;13.722;2023-07-29T03:37:30;4.57;;;1.20;;
76447;SDS011;65284;51.040;13.722;2023-07-29T03:39:57;3.13;;;1.20;;
76447;SDS011;65284;51.040;13.722;2023-07-29T03:42:24;3.58;;;1.13;;
76447;SDS011;65284;51.040;13.722;2023-07-29T03:44:51;1.63;;;1.10;;
76447;SDS011;65284;51.040;13.722;2023-07-29T03:47:17;2.80;;;0.90;;
76447;SDS011;65284;51.040;13.722;2023-07-29T03:49:43;2.20;;;1.05;;
76447;SDS011;65284;51.040;13.722;2023-07-29T03:52:10;1.80;;;0.93;;
76447;SDS011;65284;51.040;13.722;2023-07-29T03:54:36;1.55;;;1.00;;
76447;SDS011;65284;51.040;13.722;2023-07-29T03:57:03;2.03;;;1.00;;
76447;SDS011;65284;51.040;13.722;2023-07-29T03:59:29;2.15;;;0.98;;
76447;SDS011;65284;51.040;13.722;2023-07-29T04:01:56;1.85;;;0.93;;
76447;SDS011;65284;51.040;13.722;2023-07-29T04:04:22;1.63;;;0.90;;
76447;SDS011;65284;51.040;13.722;2023-07-29T04:06:49;2.30;;;0.90;;
76447;SDS011;65284;51.040;13.722;2023-07-29T04:09:15;1.77;;;0.80;;
76447;SDS011;65284;51.040;13.722;2023-07-29T04:11:42;2.20;;;1.00;;
76447;SDS011;65284;51.040;13.722;2023-07-29T04:14:08;4.75;;;1.00;;
76447;SDS011;65284;51.040;13.722;2023-07-29T04:16:34;1.60;;;1.00;;
76447;SDS011;65284;51.040;13.722;2023-07-29T04:19:01;1.40;;;0.90;;
76447;SDS011;65284;51.040;13.722;2023-07-29T04:21:28;1.73;;;0.90;;
76447;SDS011;65284;51.040;13.722;2023-07-29T04:23:54;2.90;;;0.85;;
76447;SDS011;65284;51.040;13.722;2023-07-29T04:26:21;1.80;;;0.80;;
76447;SDS011;65284;51.040;13.722;2023-07-29T04:28:47;1.77;;;0.90;;
76447;SDS011;65284;51.040;13.722;2023-07-29T04:31:13;1.23;;;0.80;;
76447;SDS011;65284;51.040;13.722;2023-07-29T04:33:40;3.50;;;1.10;;
76447;SDS011;65284;51.040;13.722;2023-07-29T04:36:06;2.35;;;0.93;;
76447;SDS011;65284;51.040;13.722;2023-07-29T04:38:33;3.78;;;0.70;;
76447;SDS011;65284;51.040;13.722;2023-07-29T04:41:00;2.45;;;0.90;;
76447;SDS011;65284;51.040;13.722;2023-07-29T04:43:30;2.85;;;0.80;;
76447;SDS011;65284;51.040;13.722;2023-07-29T04:45:58;1.50;;;0.80;;
76447;SDS011;65284;51.040;13.722;2023-07-29T04:48:24;1.75;;;0.80;;
76447;SDS011;65284;51.040;13.722;2023-07-29T04:50:51;1.98;;;0.90;;
76447;SDS011;65284;51.040;13.722;2023-07-29T04:53:17;3.90;;;0.90;;
76447;SDS011;65284;51.040;13.722;2023-07-29T04:55:43;2.28;;;0.80;;
76447;SDS011;65284;51.040;13.722;2023-07-29T04:58:10;1.52;;;0.90;;
76447;SDS011;65284;51.040;13.722;2023-07-29T05:00:36;3.47;;;0.90;;
76447;SDS011;65284;51.040;13.722;2023-07-29T05:03:03;1.58;;;0.70;;
76447;SDS011;65284;51.040;13.722;2023-07-29T05:05:29;3.80;;;1.00;;
76447;SDS011;65284;51.040;13.722;2023-07-29T05:07:56;3.25;;;1.02;;
76447;SDS011;65284;51.040;13.722;2023-07-29T05:10:22;2.63;;;1.00;;
76447;SDS011;65284;51.040;13.722;2023-07-29T05:12:49;4.22;;;0.93;;
76447;SDS011;65284;51.040;13.722;2023-07-29T05:15:15;1.35;;;0.80;;
76447;SDS011;65284;51.040;13.722;2023-07-29T05:17:42;1.75;;;0.77;;
76447;SDS011;65284;51.040;13.722;2023-07-29T05:20:08;2.30;;;0.80;;
76447;SDS011;65284;51.040;13.722;2023-07-29T05:22:35;2.33;;;0.80;;
76447;SDS011;65284;51.040;13.722;2023-07-29T05:25:01;2.28;;;0.80;;
76447;SDS011;65284;51.040;13.722;2023-07-29T05:27:28;3.10;;;0.80;;
76447;SDS011;65284;51.040;13.722;2023-07-29T05:29:54;3.47;;;1.00;;
76447;SDS011;65284;51.040;13.722;2023-07-29T05:32:21;3.75;;;0.90;;
76447;SDS011;65284;51.040;13.722;2023-07-29T05:34:47;1.50;;;0.80;;
76447;SDS011;65284;51.040;13.722;2023-07-29T05:37:14;1.10;;;0.80;;
76447;SDS011;65284;51.040;13.722;2023-07-29T05:39:40;2.00;;;0.88;;
76447;SDS011;65284;51.040;13.722;2023-07-29T05:42:06;1.95;;;0.70;;
76447;SDS011;65284;51.040;13.722;2023-07-29T05:44:34;3.28;;;0.85;;
76447;SDS011;65284;51.040;13.722;2023-07-29T05:47:00;1.20;;;0.80;;
76447;SDS011;65284;51.040;13.722;2023-07-29T05:49:27;2.05;;;0.85;;
76447;SDS011;65284;51.040;13.722;2023-07-29T05:51:53;1.48;;;0.80;;
76447;SDS011;65284;51.040;13.722;2023-07-29T05:54:20;2.40;;;0.90;;
76447;SDS011;65284;51.040;13.722;2023-07-29T05:56:46;3.58;;;0.63;;
76447;SDS011;65284;51.040;13.722;2023-07-29T05:59:13;1.30;;;0.75;;
76447;SDS011;65284;51.040;13.722;2023-07-29T06:01:39;3.13;;;0.80;;
76447;SDS011;65284;51.040;13.722;2023-07-29T06:04:05;1.48;;;0.63;;
76447;SDS011;65284;51.040;13.722;2023-07-29T06:06:32;2.03;;;0.70;;
76447;SDS011;65284;51.040;13.722;2023-07-29T06:08:59;2.35;;;0.77;;
76447;SDS011;65284;51.040;13.722;2023-07-29T06:11:25;2.13;;;0.80;;
76447;SDS011;65284;51.040;13.722;2023-07-29T06:13:52;1.30;;;0.70;;
76447;SDS011;65284;51.040;13.722;2023-07-29T06:16:18;3.72;;;1.00;;
76447;SDS011;65284;51.040;13.722;2023-07-29T06:18:45;2.80;;;0.70;;
76447;SDS011;65284;51.040;13.722;2023-07-29T06:21:11;1.77;;;0.90;;
76447;SDS011;65284;51.040;13.722;2023-07-29T06:23:38;3.72;;;1.05;;
76447;SDS011;65284;51.040;13.722;2023-07-29T06:26:05;1.20;;;0.88;;
76447;SDS011;65284;51.040;13.722;2023-07-29T06:28:32;1.75;;;1.02;;
76447;SDS011;65284;51.040;13.722;2023-07-29T06:30:59;2.70;;;0.90;;
76447;SDS011;65284;51.040;13.722;2023-07-29T06:33:25;1.55;;;0.90;;
76447;SDS011;65284;51.040;13.722;2023-07-29T06:35:52;2.03;;;0.90;;
76447;SDS011;65284;51.040;13.722;2023-07-29T06:38:18;2.17;;;0.90;;
76447;SDS011;65284;51.040;13.722;2023-07-29T06:40:48;1.90;;;0.95;;
76447;SDS011;65284;51.040;13.722;2023-07-29T06:43:15;2.35;;;1.10;;
76447;SDS011;65284;51.040;13.722;2023-07-29T06:45:41;2.53;;;1.10;;
76447;SDS011;65284;51.040;13.722;2023-07-29T06:48:08;2.00;;;0.93;;
76447;SDS011;65284;51.040;13.722;2023-07-29T06:50:35;1.27;;;0.85;;
76447;SDS011;65284;51.040;13.722;2023-07-29T06:53:01;3.47;;;0.90;;
76447;SDS011;65284;51.040;13.722;2023-07-29T06:55:29;1.27;;;0.90;;
76447;SDS011;65284;51.040;13.722;2023-07-29T06:57:55;3.08;;;1.10;;
76447;SDS011;65284;51.040;13.722;2023-07-29T07:00:22;4.10;;;1.17;;
76447;SDS011;65284;51.040;13.722;2023-07-29T07:02:48;3.67;;;1.00;;
76447;SDS011;65284;51.040;13.722;2023-07-29T07:05:15;2.22;;;1.10;;
76447;SDS011;65284;51.040;13.722;2023-07-29T07:07:41;4.22;;;1.10;;
76447;SDS011;65284;51.040;13.722;2023-07-29T07:10:08;2.38;;;1.00;;
76447;SDS011;65284;51.040;13.722;2023-07-29T07:12:35;1.30;;;0.80;;
76447;SDS011;65284;51.040;13.722;2023-07-29T07:15:01;4.85;;;2.17;;
76447;SDS011;65284;51.040;13.722;2023-07-29T07:17:28;2.30;;;1.38;;
76447;SDS011;65284;51.040;13.722;2023-07-29T07:19:54;4.15;;;2.15;;
76447;SDS011;65284;51.040;13.722;2023-07-29T07:22:21;4.65;;;2.33;;
76447;SDS011;65284;51.040;13.722;2023-07-29T07:24:47;2.92;;;1.30;;
76447;SDS011;65284;51.040;13.722;2023-07-29T07:27:14;7.18;;;1.70;;
76447;SDS011;65284;51.040;13.722;2023-07-29T07:29:40;1.92;;;1.00;;
76447;SDS011;65284;51.040;13.722;2023-07-29T07:32:07;2.33;;;1.33;;
76447;SDS011;65284;51.040;13.722;2023-07-29T07:34:33;2.33;;;1.23;;
76447;SDS011;65284;51.040;13.722;2023-07-29T07:37:00;2.35;;;0.90;;
76447;SDS011;65284;51.040;13.722;2023-07-29T07:39:27;2.60;;;1.02;;
76447;SDS011;65284;51.040;13.722;2023-07-29T07:41:54;1.80;;;1.00;;
76447;SDS011;65284;51.040;13.722;2023-07-29T07:44:20;1.30;;;0.80;;
76447;SDS011;65284;51.040;13.722;2023-07-29T07:46:47;4.25;;;1.27;;
76447;SDS011;65284;51.040;13.722;2023-07-29T07:49:13;1.75;;;0.80;;
76447;SDS011;65284;51.040;13.722;2023-07-29T07:51:40;2.13;;;1.13;;
76447;SDS011;65284;51.040;13.722;2023-07-29T07:54:06;2.17;;;0.90;;
76447;SDS011;65284;51.040;13.722;2023-07-29T07:56:33;1.58;;;0.90;;
76447;SDS011;65284;51.040;13.722;2023-07-29T07:58:59;2.70;;;1.10;;
76447;SDS011;65284;51.040;13.722;2023-07-29T08:01:26;6.95;;;2.58;;
76447;SDS011;65284;51.040;13.722;2023-07-29T08:03:52;3.67;;;1.20;;
76447;SDS011;65284;51.040;13.722;2023-07-29T08:06:19;1.92;;;1.10;;
76447;SDS011;65284;51.040;13.722;2023-07-29T08:08:45;2.88;;;0.90;;
76447;SDS011;65284;51.040;13.722;2023-07-29T08:11:12;4.50;;;2.10;;
76447;SDS011;65284;51.040;13.722;2023-07-29T08:13:38;2.95;;;1.55;;
76447;SDS011;65284;51.040;13.722;2023-07-29T08:16:05;2.40;;;1.30;;
76447;SDS011;65284;51.040;13.722;2023-07-29T08:18:31;2.15;;;0.80;;
76447;SDS011;65284;51.040;13.722;2023-07-29T08:20:58;1.58;;;0.65;;
76447;SDS011;65284;51.040;13.722;2023-07-29T08:23:35;1.95;;;0.60;;
76447;SDS011;65284;51.040;13.722;2023-07-29T08:26:03;2.50;;;1.30;;
76447;SDS011;65284;51.040;13.722;2023-07-29T08:30:59;3.45;;;0.95;;
76447;SDS011;65284;51.040;13.722;2023-07-29T08:33:25;1.20;;;0.60;;
76447;SDS011;65284;51.040;13.722;2023-07-29T08:35:53;1.70;;;0.60;;
76447;SDS011;65284;51.040;13.722;2023-07-29T08:38:19;1.10;;;0.60;;
76447;SDS011;65284;51.040;13.722;2023-07-29T08:40:50;2.20;;;0.68;;
76447;SDS011;65284;51.040;13.722;2023-07-29T08:43:18;1.88;;;0.80;;
76447;SDS011;65284;51.040;13.722;2023-07-29T08:45:47;1.20;;;0.60;;
76447;SDS011;65284;51.040;13.722;2023-07-29T08:48:15;1.00;;;0.43;;
76447;SDS011;65284;51.040;13.722;2023-07-29T08:50:47;0.70;;;0.45;;
76447;SDS011;65284;51.040;13.722;2023-07-29T08:53:15;5.35;;;2.65;;
76447;SDS011;65284;51.040;13.722;2023-07-29T08:55:42;11.23;;;6.53;;
76447;SDS011;65284;51.040;13.722;2023-07-29T08:58:10;4.88;;;1.92;;
76447;SDS011;65284;51.040;13.722;2023-07-29T09:00:37;1.38;;;0.50;;
76447;SDS011;65284;51.040;13.722;2023-07-29T09:03:03;4.55;;;0.70;;
76447;SDS011;65284;51.040;13.722;2023-07-29T09:05:33;0.73;;;0.57;;
76447;SDS011;65284;51.040;13.722;2023-07-29T09:08:02;2.15;;;0.60;;
76447;SDS011;65284;51.040;13.722;2023-07-29T09:10:36;1.10;;;0.75;;
76447;SDS011;65284;51.040;13.722;2023-07-29T09:13:06;1.55;;;0.68;;
76447;SDS011;65284;51.040;13.722;2023-07-29T09:15:36;1.20;;;0.65;;
76447;SDS011;65284;51.040;13.722;2023-07-29T09:18:14;1.35;;;0.60;;
76447;SDS011;65284;51.040;13.722;2023-07-29T09:20:42;2.13;;;0.80;;
76447;SDS011;65284;51.040;13.722;2023-07-29T09:23:09;1.70;;;0.60;;
76447;SDS011;65284;51.040;13.722;2023-07-29T09:25:37;1.65;;;0.70;;
76447;SDS011;65284;51.040;13.722;2023-07-29T09:28:15;1.60;;;0.60;;
76447;SDS011;65284;51.040;13.722;2023-07-29T09:30:45;3.97;;;0.90;;
76447;SDS011;65284;51.040;13.722;2023-07-29T09:33:12;3.58;;;1.67;;
76447;SDS011;65284;51.040;13.722;2023-07-29T09:35:39;6.95;;;4.75;;
76447;SDS011;65284;51.040;13.722;2023-07-29T09:38:13;3.42;;;2.15;;
76447;SDS011;65284;51.040;13.722;2023-07-29T09:40:41;2.78;;;1.30;;
76447;SDS011;65284;51.040;13.722;2023-07-29T09:43:08;1.77;;;0.98;;
76447;SDS011;65284;51.040;13.722;2023-07-29T09:45:36;2.38;;;0.98;;
76447;SDS011;65284;51.040;13.722;2023-07-29T09:48:03;2.65;;;1.40;;
76447;SDS011;65284;51.040;13.722;2023-07-29T09:50:35;2.60;;;1.20;;
76447;SDS011;65284;51.040;13.722;2023-07-29T09:53:02;2.30;;;1.00;;
76447;SDS011;65284;51.040;13.722;2023-07-29T09:55:32;3.15;;;0.90;;
76447;SDS011;65284;51.040;13.722;2023-07-29T09:58:01;3.95;;;1.90;;
76447;SDS011;65284;51.040;13.722;2023-07-29T10:00:33;2.17;;;0.90;;
76447;SDS011;65284;51.040;13.722;2023-07-29T10:03:00;2.95;;;1.00;;
76447;SDS011;65284;51.040;13.722;2023-07-29T10:05:27;2.08;;;0.90;;
76447;SDS011;65284;51.040;13.722;2023-07-29T10:07:58;4.10;;;1.75;;
76447;SDS011;65284;51.040;13.722;2023-07-29T10:10:25;3.25;;;1.25;;
76447;SDS011;65284;51.040;13.722;2023-07-29T10:12:53;4.95;;;1.67;;
76447;SDS011;65284;51.040;13.722;2023-07-29T10:15:20;4.20;;;2.00;;
76447;SDS011;65284;51.040;13.722;2023-07-29T10:17:47;3.17;;;1.17;;
76447;SDS011;65284;51.040;13.722;2023-07-29T10:20:16;4.70;;;1.25;;
76447;SDS011;65284;51.040;13.722;2023-07-29T10:22:46;2.03;;;1.05;;
76447;SDS011;65284;51.040;13.722;2023-07-29T10:25:15;2.65;;;1.40;;
76447;SDS011;65284;51.040;13.722;2023-07-29T10:27:47;3.03;;;1.40;;
76447;SDS011;65284;51.040;13.722;2023-07-29T10:30:17;2.92;;;1.20;;
76447;SDS011;65284;51.040;13.722;2023-07-29T10:32:49;4.82;;;2.20;;
76447;SDS011;65284;51.040;13.722;2023-07-29T10:35:18;6.20;;;3.88;;
76447;SDS011;65284;51.040;13.722;2023-07-29T10:37:45;8.10;;;5.68;;
76447;SDS011;65284;51.040;13.722;2023-07-29T10:40:17;10.57;;;8.43;;
76447;SDS011;65284;51.040;13.722;2023-07-29T10:43:03;10.30;;;7.07;;
76447;SDS011;65284;51.040;13.722;2023-07-29T10:45:39;13.00;;;10.10;;
76447;SDS011;65284;51.040;13.722;2023-07-29T10:48:10;12.95;;;10.75;;
76447;SDS011;65284;51.040;13.722;2023-07-29T10:54:01;6.50;;;3.72;;
76447;SDS011;65284;51.040;13.722;2023-07-29T10:56:41;4.72;;;3.00;;
76447;SDS011;65284;51.040;13.722;2023-07-29T11:01:40;2.22;;;1.30;;
76447;SDS011;65284;51.040;13.722;2023-07-29T11:17:36;1.92;;;1.20;;
76447;SDS011;65284;51.040;13.722;2023-07-29T11:20:05;4.72;;;1.30;;
76447;SDS011;65284;51.040;13.722;2023-07-29T11:22:33;1.77;;;0.90;;
76447;SDS011;65284;51.040;13.722;2023-07-29T11:25:01;2.17;;;1.00;;
76447;SDS011;65284;51.040;13.722;2023-07-29T11:27:27;3.45;;;0.80;;
76447;SDS011;65284;51.040;13.722;2023-07-29T11:30:00;1.75;;;0.80;;
76447;SDS011;65284;51.040;13.722;2023-07-29T11:32:31;2.10;;;0.80;;
76447;SDS011;65284;51.040;13.722;2023-07-29T11:35:02;2.78;;;0.85;;
76447;SDS011;65284;51.040;13.722;2023-07-29T11:37:34;2.80;;;0.80;;
76447;SDS011;65284;51.040;13.722;2023-07-29T11:40:01;2.10;;;0.90;;
76447;SDS011;65284;51.040;13.722;2023-07-29T11:42:28;2.40;;;0.80;;
76447;SDS011;65284;51.040;13.722;2023-07-29T11:44:58;1.67;;;0.70;;
76447;SDS011;65284;51.040;13.722;2023-07-29T11:47:25;1.80;;;0.80;;
76447;SDS011;65284;51.040;13.722;2023-07-29T11:49:52;1.60;;;0.90;;
76447;SDS011;65284;51.040;13.722;2023-07-29T11:52:19;2.50;;;0.80;;
76447;SDS011;65284;51.040;13.722;2023-07-29T11:54:49;2.58;;;0.90;;
76447;SDS011;65284;51.040;13.722;2023-07-29T11:57:16;1.92;;;0.90;;
76447;SDS011;65284;51.040;13.722;2023-07-29T11:59:44;2.53;;;1.10;;
76447;SDS011;65284;51.040;13.722;2023-07-29T12:02:15;2.40;;;1.00;;
76447;SDS011;65284;51.040;13.722;2023-07-29T12:07:12;5.53;;;0.90;;
76447;SDS011;65284;51.040;13.722;2023-07-29T12:09:40;2.00;;;1.00;;
76447;SDS011;65284;51.040;13.722;2023-07-29T12:12:08;2.22;;;1.10;;
76447;SDS011;65284;51.040;13.722;2023-07-29T12:14:35;2.90;;;1.50;;
76447;SDS011;65284;51.040;13.722;2023-07-29T12:17:02;2.50;;;0.88;;
76447;SDS011;65284;51.040;13.722;2023-07-29T12:19:35;2.97;;;0.90;;
76447;SDS011;65284;51.040;13.722;2023-07-29T12:22:03;3.03;;;1.23;;
76447;SDS011;65284;51.040;13.722;2023-07-29T12:24:31;2.00;;;0.90;;
76447;SDS011;65284;51.040;13.722;2023-07-29T12:26:58;2.15;;;0.80;;
76447;SDS011;65284;51.040;13.722;2023-07-29T12:29:28;3.38;;;0.80;;
76447;SDS011;65284;51.040;13.722;2023-07-29T12:32:01;2.10;;;0.82;;
76447;SDS011;65284;51.040;13.722;2023-07-29T12:34:30;1.88;;;0.70;;
76447;SDS011;65284;51.040;13.722;2023-07-29T12:36:58;2.92;;;0.60;;
76447;SDS011;65284;51.040;13.722;2023-07-29T12:39:26;1.77;;;0.68;;
76447;SDS011;65284;51.040;13.722;2023-07-29T12:41:53;1.38;;;0.68;;
76447;SDS011;65284;51.040;13.722;2023-07-29T12:44:22;2.67;;;0.50;;
76447;SDS011;65284;51.040;13.722;2023-07-29T12:46:49;1.05;;;0.60;;
76447;SDS011;65284;51.040;13.722;2023-07-29T12:49:16;1.55;;;0.70;;
76447;SDS011;65284;51.040;13.722;2023-07-29T12:51:46;1.52;;;0.77;;
76447;SDS011;65284;51.040;13.722;2023-07-29T12:54:14;2.55;;;1.27;;
76447;SDS011;65284;51.040;13.722;2023-07-29T12:56:40;2.97;;;0.90;;
76447;SDS011;65284;51.040;13.722;2023-07-29T12:59:07;4.32;;;1.20;;
76447;SDS011;65284;51.040;13.722;2023-07-29T13:01:33;4.40;;;0.90;;
76447;SDS011;65284;51.040;13.722;2023-07-29T13:04:00;3.35;;;1.00;;
76447;SDS011;65284;51.040;13.722;2023-07-29T13:06:26;2.03;;;0.80;;
76447;SDS011;65284;51.040;13.722;2023-07-29T13:11:21;1.75;;;0.60;;
76447;SDS011;65284;51.040;13.722;2023-07-29T13:13:49;2.60;;;0.82;;
76447;SDS011;65284;51.040;13.722;2023-07-29T13:16:22;1.60;;;0.80;;
76447;SDS011;65284;51.040;13.722;2023-07-29T13:18:49;0.95;;;0.63;;
76447;SDS011;65284;51.040;13.722;2023-07-29T13:21:16;2.08;;;0.77;;
76447;SDS011;65284;51.040;13.722;2023-07-29T13:23:42;1.98;;;0.80;;
76447;SDS011;65284;51.040;13.722;2023-07-29T13:26:09;3.40;;;1.00;;
76447;SDS011;65284;51.040;13.722;2023-07-29T13:28:35;3.55;;;0.90;;
76447;SDS011;65284;51.040;13.722;2023-07-29T13:31:01;1.73;;;0.75;;
76447;SDS011;65284;51.040;13.722;2023-07-29T13:33:29;1.88;;;0.80;;
76447;SDS011;65284;51.040;13.722;2023-07-29T13:36:00;2.08;;;0.60;;
76447;SDS011;65284;51.040;13.722;2023-07-29T13:38:29;1.33;;;0.68;;
76447;SDS011;65284;51.040;13.722;2023-07-29T13:40:55;2.28;;;0.60;;
76447;SDS011;65284;51.040;13.722;2023-07-29T13:43:22;0.90;;;0.52;;
76447;SDS011;65284;51.040;13.722;2023-07-29T13:45:49;1.42;;;0.60;;
76447;SDS011;65284;51.040;13.722;2023-07-29T13:48:17;1.02;;;0.57;;
76447;SDS011;65284;51.040;13.722;2023-07-29T13:50:43;2.80;;;0.60;;
76447;SDS011;65284;51.040;13.722;2023-07-29T13:53:10;3.13;;;0.60;;
76447;SDS011;65284;51.040;13.722;2023-07-29T13:55:37;2.67;;;0.73;;
76447;SDS011;65284;51.040;13.722;2023-07-29T13:58:07;2.30;;;0.60;;
76447;SDS011;65284;51.040;13.722;2023-07-29T14:00:33;2.35;;;0.60;;
76447;SDS011;65284;51.040;13.722;2023-07-29T14:03:00;1.50;;;0.80;;
76447;SDS011;65284;51.040;13.722;2023-07-29T14:05:26;1.23;;;0.68;;
76447;SDS011;65284;51.040;13.722;2023-07-29T14:07:53;1.85;;;0.68;;
76447;SDS011;65284;51.040;13.722;2023-07-29T14:10:19;2.60;;;0.70;;
76447;SDS011;65284;51.040;13.722;2023-07-29T14:12:45;1.52;;;0.60;;
76447;SDS011;65284;51.040;13.722;2023-07-29T14:15:12;1.40;;;0.52;;
76447;SDS011;65284;51.040;13.722;2023-07-29T14:17:38;1.00;;;0.60;;
76447;SDS011;65284;51.040;13.722;2023-07-29T14:20:05;2.28;;;0.60;;
76447;SDS011;65284;51.040;13.722;2023-07-29T14:22:32;1.17;;;0.60;;
76447;SDS011;65284;51.040;13.722;2023-07-29T14:24:58;1.45;;;0.50;;
76447;SDS011;65284;51.040;13.722;2023-07-29T14:27:26;1.17;;;0.60;;
76447;SDS011;65284;51.040;13.722;2023-07-29T14:29:53;2.35;;;0.55;;
76447;SDS011;65284;51.040;13.722;2023-07-29T14:32:19;1.80;;;0.50;;
76447;SDS011;65284;51.040;13.722;2023-07-29T14:34:48;2.13;;;0.50;;
76447;SDS011;65284;51.040;13.722;2023-07-29T14:37:15;1.67;;;0.50;;
76447;SDS011;65284;51.040;13.722;2023-07-29T14:39:42;1.85;;;0.60;;
76447;SDS011;65284;51.040;13.722;2023-07-29T14:42:08;1.95;;;0.60;;
76447;SDS011;65284;51.040;13.722;2023-07-29T14:44:35;1.42;;;0.60;;
76447;SDS011;65284;51.040;13.722;2023-07-29T14:47:01;1.33;;;0.50;;
76447;SDS011;65284;51.040;13.722;2023-07-29T14:49:28;2.22;;;0.60;;
76447;SDS011;65284;51.040;13.722;2023-07-29T14:51:54;0.90;;;0.40;;
76447;SDS011;65284;51.040;13.722;2023-07-29T14:54:21;1.38;;;0.70;;
76447;SDS011;65284;51.040;13.722;2023-07-29T14:56:47;1.00;;;0.50;;
76447;SDS011;65284;51.040;13.722;2023-07-29T14:59:14;1.63;;;0.50;;
76447;SDS011;65284;51.040;13.722;2023-07-29T15:01:40;1.27;;;0.68;;
76447;SDS011;65284;51.040;13.722;2023-07-29T15:04:07;3.10;;;0.52;;
76447;SDS011;65284;51.040;13.722;2023-07-29T15:06:33;0.95;;;0.40;;
76447;SDS011;65284;51.040;13.722;2023-07-29T15:09:00;1.02;;;0.50;;
76447;SDS011;65284;51.040;13.722;2023-07-29T15:11:27;1.40;;;0.55;;
76447;SDS011;65284;51.040;13.722;2023-07-29T15:13:53;2.90;;;0.60;;